Time;durP1;ratioP1;P1;durP2;ratioP2;P2;SDS_P1;SDS_P2;PMS_P1;PMS_P2;Temp;Humidity;BMP_temperature;BMP_pressure;BME280_temperature;BME280_humidity;BME280_pressure;Samples;Min_cycle;Max_cycle;Signal;HPM_P1;HPM_P2
2022/01/06 00:02:13;;;;;;;21.67;3.00;;;;;;;;;;4953388;28;20273;-61
2022/01/06 00:04:38;;;;;;;15.63;3.53;;;;;;;;;;4954843;28;20301;-60
2022/01/06 00:07:03;;;;;;;16.57;3.37;;;;;;;;;;4954208;28;20207;-60
2022/01/06 00:09:28;;;;;;;17.50;2.73;;;;;;;;;;4953948;28;20269;-60
2022/01/06 00:11:54;;;;;;;20.20;2.80;;;;;;;;;;4954803;28;20210;-61
2022/01/06 00:14:35;;;;;;;19.93;3.20;;;;;;;;;;4954260;28;20312;-61
2022/01/06 00:17:18;;;;;;;20.80;2.87;;;;;;;;;;4940597;28;20222;-60
2022/01/06 00:25:11;;;;;;;21.43;3.17;;;;;;;;;;4954082;28;20245;-60
2022/01/06 00:27:36;;;;;;;21.03;3.50;;;;;;;;;;4954322;28;20686;-59
2022/01/06 00:30:02;;;;;;;19.47;3.00;;;;;;;;;;4953338;28;20233;-59
2022/01/06 00:32:27;;;;;;;15.73;3.37;;;;;;;;;;4947538;28;20737;-59
2022/01/06 00:34:52;;;;;;;15.73;2.90;;;;;;;;;;4935284;29;20242;-59
2022/01/06 00:37:18;;;;;;;17.77;3.57;;;;;;;;;;4934008;29;20227;-59
2022/01/06 00:39:43;;;;;;;17.07;2.63;;;;;;;;;;4935324;29;20223;-59
2022/01/06 00:42:08;;;;;;;17.77;2.70;;;;;;;;;;4935078;29;20374;-59
2022/01/06 00:44:34;;;;;;;18.23;3.37;;;;;;;;;;4934163;29;20737;-60
2022/01/06 00:46:59;;;;;;;20.13;3.03;;;;;;;;;;4935230;29;20207;-60
2022/01/06 00:49:24;;;;;;;15.50;2.60;;;;;;;;;;4934294;29;20243;-59
2022/01/06 00:51:49;;;;;;;19.87;2.80;;;;;;;;;;4934439;29;20339;-59
2022/01/06 00:54:15;;;;;;;18.00;2.50;;;;;;;;;;4934668;29;20242;-59
2022/01/06 00:56:40;;;;;;;19.30;2.67;;;;;;;;;;4934965;29;20581;-58
2022/01/06 00:59:05;;;;;;;21.17;3.43;;;;;;;;;;4933676;29;20211;-59
2022/01/06 01:01:31;;;;;;;19.27;3.50;;;;;;;;;;4957228;28;20582;-59
2022/01/06 01:03:56;;;;;;;17.30;2.80;;;;;;;;;;4970775;28;20253;-59
2022/01/06 01:06:22;;;;;;;16.77;2.67;;;;;;;;;;4975118;28;20285;-59
2022/01/06 01:08:47;;;;;;;18.07;2.63;;;;;;;;;;4977235;28;20217;-59
2022/01/06 01:11:12;;;;;;;16.47;2.47;;;;;;;;;;4976029;28;20304;-59
2022/01/06 01:13:54;;;;;;;17.23;3.17;;;;;;;;;;4977150;28;20210;-59
2022/01/06 01:16:24;;;;;;;18.00;3.23;;;;;;;;;;4969264;28;20285;-59
2022/01/06 01:18:50;;;;;;;14.30;2.40;;;;;;;;;;4956781;28;20246;-59
2022/01/06 01:21:15;;;;;;;22.67;3.13;;;;;;;;;;4957169;28;20245;-59
2022/01/06 01:23:41;;;;;;;21.57;3.00;;;;;;;;;;4957744;28;20705;-59
2022/01/06 01:26:06;;;;;;;18.73;3.23;;;;;;;;;;4956442;28;20262;-59
2022/01/06 01:28:42;;;;;;;19.43;2.90;;;;;;;;;;4957568;28;20242;-59
2022/01/06 01:31:23;;;;;;;16.43;2.80;;;;;;;;;;4957049;28;20226;-59
2022/01/06 01:33:49;;;;;;;17.87;2.70;;;;;;;;;;4956473;28;20219;-59
2022/01/06 01:36:14;;;;;;;17.87;2.60;;;;;;;;;;4957015;28;20220;-59
2022/01/06 01:38:40;;;;;;;20.53;2.80;;;;;;;;;;4957295;28;20572;-59
2022/01/06 01:41:06;;;;;;;12.73;2.37;;;;;;;;;;4956056;28;20225;-59
2022/01/06 01:43:31;;;;;;;21.57;2.77;;;;;;;;;;4957284;28;20750;-59
2022/01/06 01:45:58;;;;;;;18.70;2.67;;;;;;;;;;4957279;28;20215;-59
2022/01/06 01:48:31;;;;;;;16.70;2.90;;;;;;;;;;4955899;28;20215;-59
2022/01/06 01:50:57;;;;;;;18.40;2.80;;;;;;;;;;4956793;28;20230;-59
2022/01/06 01:53:22;;;;;;;23.40;3.07;;;;;;;;;;4955883;28;20218;-59
2022/01/06 01:55:47;;;;;;;20.00;2.80;;;;;;;;;;4956936;28;20242;-59
2022/01/06 01:58:13;;;;;;;18.07;3.40;;;;;;;;;;4956490;28;20761;-59
2022/01/06 02:00:38;;;;;;;15.67;2.57;;;;;;;;;;4956108;28;20214;-59
2022/01/06 02:03:03;;;;;;;14.23;2.33;;;;;;;;;;4956531;28;20206;-59
2022/01/06 02:05:29;;;;;;;18.90;2.73;;;;;;;;;;4956868;28;20216;-59
2022/01/06 02:07:55;;;;;;;16.37;2.73;;;;;;;;;;4956144;28;20210;-59
2022/01/06 02:10:20;;;;;;;16.93;2.67;;;;;;;;;;4956385;28;20330;-59
2022/01/06 02:12:48;;;;;;;24.27;2.77;;;;;;;;;;4971482;28;20269;-60
2022/01/06 02:15:13;;;;;;;17.53;3.10;;;;;;;;;;4955726;28;20215;-59
2022/01/06 02:17:39;;;;;;;22.23;2.70;;;;;;;;;;4938417;28;20219;-59
2022/01/06 02:20:06;;;;;;;17.00;2.57;;;;;;;;;;4936749;29;20211;-59
2022/01/06 02:22:31;;;;;;;19.37;2.40;;;;;;;;;;4946212;28;20217;-59
2022/01/06 02:24:56;;;;;;;16.23;2.70;;;;;;;;;;4956692;28;20586;-59
2022/01/06 02:27:21;;;;;;;24.27;2.80;;;;;;;;;;4956112;28;20270;-59
2022/01/06 02:29:47;;;;;;;18.60;2.67;;;;;;;;;;4955764;28;20226;-59
2022/01/06 02:32:16;;;;;;;16.13;2.90;;;;;;;;;;4956221;28;20215;-58
2022/01/06 02:34:41;;;;;;;12.57;2.43;;;;;;;;;;4956560;28;20298;-59
2022/01/06 02:37:06;;;;;;;15.73;2.30;;;;;;;;;;4954990;28;20309;-59
2022/01/06 02:39:32;;;;;;;14.53;2.93;;;;;;;;;;4956386;28;20646;-59
2022/01/06 02:41:57;;;;;;;16.20;2.47;;;;;;;;;;4956365;28;20772;-59
2022/01/06 02:44:25;;;;;;;18.30;2.67;;;;;;;;;;4955122;28;20213;-59
2022/01/06 02:46:50;;;;;;;18.43;2.70;;;;;;;;;;4955957;28;20293;-59
2022/01/06 02:49:16;;;;;;;19.93;2.60;;;;;;;;;;4955268;28;20317;-59
2022/01/06 02:51:41;;;;;;;17.03;2.47;;;;;;;;;;4955333;28;20210;-59
2022/01/06 02:54:06;;;;;;;14.67;2.03;;;;;;;;;;4955630;28;20272;-59
2022/01/06 02:56:32;;;;;;;19.63;2.60;;;;;;;;;;4955379;28;20210;-59
2022/01/06 02:58:58;;;;;;;17.00;2.57;;;;;;;;;;4956056;28;20221;-59
2022/01/06 03:01:23;;;;;;;16.97;2.73;;;;;;;;;;4955293;28;20211;-59
2022/01/06 03:03:48;;;;;;;18.20;2.60;;;;;;;;;;4955070;28;20708;-59
2022/01/06 03:06:13;;;;;;;15.10;2.50;;;;;;;;;;4955126;28;20212;-59
2022/01/06 03:08:39;;;;;;;17.97;2.33;;;;;;;;;;4955647;28;20301;-59
2022/01/06 03:11:06;;;;;;;15.93;2.10;;;;;;;;;;4954404;28;20601;-59
2022/01/06 03:13:31;;;;;;;18.33;2.80;;;;;;;;;;4955677;28;20214;-59
2022/01/06 03:15:57;;;;;;;17.77;2.53;;;;;;;;;;4951394;28;20215;-59
2022/01/06 03:18:22;;;;;;;14.07;2.37;;;;;;;;;;4935260;29;20615;-59
2022/01/06 03:20:48;;;;;;;16.30;2.33;;;;;;;;;;4936345;29;20310;-59
2022/01/06 03:23:13;;;;;;;14.43;2.30;;;;;;;;;;4950815;28;20233;-59
2022/01/06 03:25:38;;;;;;;13.80;2.37;;;;;;;;;;4954736;28;20221;-59
2022/01/06 03:28:03;;;;;;;19.40;2.43;;;;;;;;;;4954159;28;20218;-59
2022/01/06 03:30:29;;;;;;;16.67;2.30;;;;;;;;;;4955289;28;20622;-59
2022/01/06 03:32:54;;;;;;;14.47;2.23;;;;;;;;;;4954332;28;20215;-59
2022/01/06 03:35:22;;;;;;;14.83;2.17;;;;;;;;;;4954902;28;20305;-62
2022/01/06 03:37:47;;;;;;;16.93;2.30;;;;;;;;;;4954928;28;20221;-59
2022/01/06 03:40:13;;;;;;;17.10;2.30;;;;;;;;;;4953937;28;20215;-59
2022/01/06 03:42:38;;;;;;;16.37;2.80;;;;;;;;;;4955058;28;20214;-59
2022/01/06 03:45:04;;;;;;;13.47;2.23;;;;;;;;;;4954659;28;20284;-59
2022/01/06 03:47:29;;;;;;;13.60;2.13;;;;;;;;;;4954281;28;20221;-58
2022/01/06 03:49:55;;;;;;;14.83;2.50;;;;;;;;;;4954597;28;20242;-59
2022/01/06 03:52:20;;;;;;;14.63;2.77;;;;;;;;;;4953026;28;20544;-59
2022/01/06 03:54:46;;;;;;;13.83;2.50;;;;;;;;;;4954229;28;20241;-59
2022/01/06 03:57:11;;;;;;;16.90;1.90;;;;;;;;;;4954504;28;20229;-59
2022/01/06 03:59:36;;;;;;;13.07;2.00;;;;;;;;;;4954736;28;20218;-59
2022/01/06 04:02:02;;;;;;;14.20;2.23;;;;;;;;;;4953611;28;20214;-59
2022/01/06 04:04:27;;;;;;;16.60;3.03;;;;;;;;;;4954733;28;20217;-59
2022/01/06 04:06:52;;;;;;;20.23;2.30;;;;;;;;;;4954154;28;20378;-59
2022/01/06 04:09:18;;;;;;;23.03;2.70;;;;;;;;;;4953990;28;20230;-59
2022/01/06 04:11:43;;;;;;;13.97;2.10;;;;;;;;;;4954655;28;20633;-59
2022/01/06 04:14:08;;;;;;;21.40;2.47;;;;;;;;;;4953534;28;20210;-59
2022/01/06 04:16:36;;;;;;;21.23;2.70;;;;;;;;;;4945556;28;20641;-59
2022/01/06 04:19:02;;;;;;;16.53;2.13;;;;;;;;;;4934886;29;20231;-58
2022/01/06 04:21:28;;;;;;;12.37;2.27;;;;;;;;;;4935729;29;20223;-59
2022/01/06 04:23:53;;;;;;;19.80;2.30;;;;;;;;;;4954511;28;20237;-59
2022/01/06 04:26:18;;;;;;;11.13;2.20;;;;;;;;;;4954064;28;20689;-59
2022/01/06 04:28:43;;;;;;;23.57;2.50;;;;;;;;;;4953583;28;20206;-59
2022/01/06 04:31:09;;;;;;;18.97;2.30;;;;;;;;;;4954005;28;20222;-59
2022/01/06 04:33:34;;;;;;;15.27;2.20;;;;;;;;;;4953040;28;20210;-59
2022/01/06 04:36:00;;;;;;;19.20;2.40;;;;;;;;;;4953647;28;20214;-59
2022/01/06 04:38:26;;;;;;;19.23;2.80;;;;;;;;;;4968553;28;20218;-59
2022/01/06 04:40:51;;;;;;;14.47;2.47;;;;;;;;;;4954268;28;20214;-59
2022/01/06 04:43:17;;;;;;;20.43;2.53;;;;;;;;;;4953048;28;20210;-59
2022/01/06 04:45:43;;;;;;;23.60;2.37;;;;;;;;;;4954125;28;20790;-59
2022/01/06 04:48:08;;;;;;;17.37;2.70;;;;;;;;;;4953855;28;20774;-61
2022/01/06 04:50:33;;;;;;;14.30;2.53;;;;;;;;;;4953337;28;20694;-59
2022/01/06 04:52:58;;;;;;;13.27;2.20;;;;;;;;;;4954255;28;20218;-59
2022/01/06 04:55:24;;;;;;;17.70;2.77;;;;;;;;;;4953596;28;20224;-59
2022/01/06 04:57:49;;;;;;;13.30;2.10;;;;;;;;;;4953354;28;20614;-59
2022/01/06 05:00:14;;;;;;;17.10;2.80;;;;;;;;;;4953794;28;20238;-59
2022/01/06 05:02:40;;;;;;;17.30;2.13;;;;;;;;;;4953994;28;20214;-59
2022/01/06 05:05:05;;;;;;;12.80;2.30;;;;;;;;;;4952997;28;20557;-59
2022/01/06 05:07:32;;;;;;;15.67;2.13;;;;;;;;;;4953787;28;20302;-59
2022/01/06 05:09:57;;;;;;;14.70;2.10;;;;;;;;;;4953532;28;20222;-59
2022/01/06 05:12:22;;;;;;;14.97;2.50;;;;;;;;;;4952520;28;20211;-59
2022/01/06 05:14:48;;;;;;;19.50;2.90;;;;;;;;;;4954158;28;20673;-59
2022/01/06 05:17:13;;;;;;;14.53;2.17;;;;;;;;;;4938454;28;20215;-59
2022/01/06 05:19:38;;;;;;;20.70;2.37;;;;;;;;;;4934517;29;20215;-59
2022/01/06 05:22:04;;;;;;;15.13;2.33;;;;;;;;;;4939740;28;20198;-59
2022/01/06 05:24:29;;;;;;;16.60;2.20;;;;;;;;;;4952812;28;20256;-59
2022/01/06 05:26:55;;;;;;;15.87;2.67;;;;;;;;;;4953429;28;20213;-59
2022/01/06 05:29:21;;;;;;;15.07;2.07;;;;;;;;;;4952818;28;20234;-59
2022/01/06 05:31:46;;;;;;;15.20;2.33;;;;;;;;;;4952838;28;20214;-59
2022/01/06 05:34:11;;;;;;;15.23;2.70;;;;;;;;;;4952979;28;20221;-59
2022/01/06 05:36:36;;;;;;;21.57;2.37;;;;;;;;;;4953815;28;20671;-59
2022/01/06 05:39:02;;;;;;;16.20;2.63;;;;;;;;;;4952612;28;20210;-59
2022/01/06 05:41:27;;;;;;;16.00;2.60;;;;;;;;;;4968404;28;20223;-59
2022/01/06 05:43:53;;;;;;;16.23;1.97;;;;;;;;;;4953678;28;20289;-59
2022/01/06 05:46:18;;;;;;;20.27;2.90;;;;;;;;;;4952631;28;20376;-59
2022/01/06 05:48:44;;;;;;;16.50;2.77;;;;;;;;;;4953789;28;20234;-59
2022/01/06 05:51:09;;;;;;;12.20;2.03;;;;;;;;;;4953636;28;20262;-59
2022/01/06 05:53:34;;;;;;;17.77;2.50;;;;;;;;;;4956504;28;20278;-59
2022/01/06 05:55:59;;;;;;;17.73;2.20;;;;;;;;;;4956946;28;20203;-59
2022/01/06 05:58:25;;;;;;;17.27;2.50;;;;;;;;;;4956648;28;20213;-59
2022/01/06 06:00:50;;;;;;;18.93;2.47;;;;;;;;;;4962059;28;20233;-59
2022/01/06 06:03:15;;;;;;;14.77;2.30;;;;;;;;;;4975794;28;20696;-59
2022/01/06 06:05:41;;;;;;;13.80;1.97;;;;;;;;;;4976759;28;20206;-59
2022/01/06 06:08:07;;;;;;;23.27;3.27;;;;;;;;;;4975016;28;20729;-59
2022/01/06 06:10:32;;;;;;;14.77;2.30;;;;;;;;;;4975919;28;20314;-59
2022/01/06 06:12:58;;;;;;;17.77;2.40;;;;;;;;;;4976477;28;20263;-59
2022/01/06 06:15:23;;;;;;;16.20;2.77;;;;;;;;;;4974911;28;20579;-59
2022/01/06 06:17:49;;;;;;;18.70;2.87;;;;;;;;;;4956985;28;20210;-59
2022/01/06 06:20:14;;;;;;;13.27;2.27;;;;;;;;;;4956157;28;20225;-59
2022/01/06 06:22:40;;;;;;;20.20;3.00;;;;;;;;;;4955842;28;20215;-59
2022/01/06 06:25:05;;;;;;;22.57;2.57;;;;;;;;;;4956229;28;20218;-59
2022/01/06 06:27:31;;;;;;;21.60;2.17;;;;;;;;;;4955922;28;20617;-59
2022/01/06 06:29:56;;;;;;;14.77;2.80;;;;;;;;;;4956627;28;20223;-59
2022/01/06 06:32:21;;;;;;;17.67;2.40;;;;;;;;;;4956060;28;20249;-59
2022/01/06 06:34:47;;;;;;;20.10;2.43;;;;;;;;;;4955735;28;20222;-63
2022/01/06 06:37:12;;;;;;;15.37;2.50;;;;;;;;;;4955963;28;20222;-63
2022/01/06 06:39:37;;;;;;;15.20;2.20;;;;;;;;;;4962533;28;20241;-62
2022/01/06 06:42:02;;;;;;;14.13;2.27;;;;;;;;;;4960131;28;20222;-61
2022/01/06 06:44:28;;;;;;;14.00;2.10;;;;;;;;;;4956305;28;20210;-62
2022/01/06 06:46:53;;;;;;;20.37;2.77;;;;;;;;;;4956187;28;20608;-59
2022/01/06 06:49:18;;;;;;;14.23;2.33;;;;;;;;;;4960369;28;20218;-58
2022/01/06 06:51:44;;;;;;;15.70;2.47;;;;;;;;;;4979006;28;20225;-58
2022/01/06 06:54:09;;;;;;;13.60;1.90;;;;;;;;;;4965619;28;20229;-58
2022/01/06 06:56:34;;;;;;;16.60;2.53;;;;;;;;;;4962639;28;20629;-58
2022/01/06 06:59:00;;;;;;;16.43;2.30;;;;;;;;;;4955927;28;20226;-58
2022/01/06 07:01:25;;;;;;;16.50;2.23;;;;;;;;;;4965389;28;20643;-58
2022/01/06 07:03:50;;;;;;;19.70;2.60;;;;;;;;;;4973417;28;20214;-58
2022/01/06 07:06:15;;;;;;;18.83;2.33;;;;;;;;;;4974606;28;20221;-59
2022/01/06 07:08:41;;;;;;;13.83;1.87;;;;;;;;;;4975095;28;20268;-60
2022/01/06 07:11:06;;;;;;;15.47;2.00;;;;;;;;;;4973636;28;20604;-59
2022/01/06 07:13:31;;;;;;;10.87;2.40;;;;;;;;;;4974899;28;20213;-59
2022/01/06 07:15:56;;;;;;;14.10;2.03;;;;;;;;;;4970507;28;20206;-59
2022/01/06 07:18:22;;;;;;;12.87;1.83;;;;;;;;;;4954494;28;20575;-59
2022/01/06 07:20:47;;;;;;;10.37;1.90;;;;;;;;;;4955460;28;20301;-58
2022/01/06 07:23:12;;;;;;;17.03;2.27;;;;;;;;;;4955100;28;20214;-58
2022/01/06 07:25:38;;;;;;;16.40;2.00;;;;;;;;;;4954689;28;20218;-60
2022/01/06 07:28:04;;;;;;;17.07;2.60;;;;;;;;;;4969615;28;20214;-59
2022/01/06 07:30:31;;;;;;;13.53;1.97;;;;;;;;;;4969869;28;20277;-58
2022/01/06 07:32:57;;;;;;;12.83;2.30;;;;;;;;;;4954317;28;20287;-58
2022/01/06 07:35:23;;;;;;;14.27;3.27;;;;;;;;;;4969641;28;20222;-58
2022/01/06 07:37:48;;;;;;;16.27;2.70;;;;;;;;;;4955048;28;20677;-59
2022/01/06 07:40:13;;;;;;;13.50;2.60;;;;;;;;;;4955950;28;20210;-59
2022/01/06 07:42:39;;;;;;;11.27;2.13;;;;;;;;;;4956990;28;20244;-59
2022/01/06 07:45:04;;;;;;;16.77;2.20;;;;;;;;;;4967333;28;20233;-60
2022/01/06 07:47:31;;;;;;;14.00;2.30;;;;;;;;;;4963138;28;20210;-62
2022/01/06 07:49:57;;;;;;;10.53;1.90;;;;;;;;;;4954605;28;20710;-59
2022/01/06 07:52:22;;;;;;;15.43;2.80;;;;;;;;;;4952940;28;20222;-60
2022/01/06 07:54:47;;;;;;;17.33;2.47;;;;;;;;;;4954920;28;20210;-60
2022/01/06 07:57:14;;;;;;;14.97;1.93;;;;;;;;;;4954205;28;20219;-60
2022/01/06 07:59:39;;;;;;;16.47;2.50;;;;;;;;;;4953974;28;20305;-61
2022/01/06 08:02:05;;;;;;;19.13;6.03;;;;;;;;;;4953665;28;20297;-60
2022/01/06 08:04:30;;;;;;;15.60;3.07;;;;;;;;;;4954695;28;20221;-60
2022/01/06 08:06:55;;;;;;;15.40;2.80;;;;;;;;;;4953912;28;20217;-60
2022/01/06 08:09:20;;;;;;;12.93;2.57;;;;;;;;;;4954113;28;20230;-60
2022/01/06 08:11:46;;;;;;;14.17;2.90;;;;;;;;;;4954501;28;20297;-60
2022/01/06 08:14:11;;;;;;;19.37;2.23;;;;;;;;;;4953045;28;20707;-60
2022/01/06 08:16:36;;;;;;;16.20;2.77;;;;;;;;;;4945025;28;20207;-59
2022/01/06 08:19:01;;;;;;;16.70;3.00;;;;;;;;;;4934960;29;20212;-60
2022/01/06 08:21:27;;;;;;;12.30;2.07;;;;;;;;;;4934787;28;20791;-59
2022/01/06 08:23:52;;;;;;;14.00;2.37;;;;;;;;;;4954500;28;20206;-59
2022/01/06 08:26:17;;;;;;;16.37;2.63;;;;;;;;;;4954213;28;20301;-59
2022/01/06 08:28:46;;;;;;;19.97;2.47;;;;;;;;;;4953182;28;20669;-60
2022/01/06 08:31:13;;;;;;;14.97;3.00;;;;;;;;;;4953851;28;20230;-60
2022/01/06 08:33:39;;;;;;;12.07;2.57;;;;;;;;;;4954504;28;20225;-60
2022/01/06 08:36:05;;;;;;;12.50;2.50;;;;;;;;;;4952764;28;20757;-60
2022/01/06 08:38:30;;;;;;;16.58;3.28;;;;;;;;;;4953496;28;20431;-62
2022/01/06 08:40:55;;;;;;;12.85;2.10;;;;;;;;;;4954476;28;20701;-61
2022/01/06 08:43:27;;;;;;;19.60;2.80;;;;;;;;;;4952840;28;20233;-59
2022/01/06 08:45:52;;;;;;;11.60;3.00;;;;;;;;;;4954396;28;20210;-58
2022/01/06 08:48:17;;;;;;;13.90;2.50;;;;;;;;;;4952955;28;20219;-59
2022/01/06 08:50:43;;;;;;;12.07;2.30;;;;;;;;;;4953676;28;20306;-59
2022/01/06 08:53:08;;;;;;;17.10;2.47;;;;;;;;;;4953801;28;20690;-60
2022/01/06 08:55:35;;;;;;;15.43;2.47;;;;;;;;;;4953446;28;20214;-60
2022/01/06 08:58:00;;;;;;;18.57;2.67;;;;;;;;;;4953830;28;20288;-60
2022/01/06 09:00:27;;;;;;;18.43;3.20;;;;;;;;;;4955910;28;20693;-60
2022/01/06 09:02:52;;;;;;;16.17;2.40;;;;;;;;;;4972616;28;20303;-60
2022/01/06 09:05:17;;;;;;;13.30;2.33;;;;;;;;;;4972970;28;20253;-60
2022/01/06 09:07:43;;;;;;;20.27;2.97;;;;;;;;;;4973376;28;20210;-60
2022/01/06 09:10:08;;;;;;;17.30;4.20;;;;;;;;;;4963068;28;20328;-60
2022/01/06 09:12:34;;;;;;;15.33;3.07;;;;;;;;;;4951905;28;20218;-60
2022/01/06 09:14:59;;;;;;;25.73;10.73;;;;;;;;;;4953986;28;20301;-60
2022/01/06 09:17:24;;;;;;;19.10;6.43;;;;;;;;;;4952900;28;20222;-60
2022/01/06 09:19:49;;;;;;;19.20;5.17;;;;;;;;;;4954010;28;20682;-60
2022/01/06 09:22:15;;;;;;;21.37;7.57;;;;;;;;;;4953359;28;20222;-59
2022/01/06 09:24:40;;;;;;;18.43;5.90;;;;;;;;;;4953122;28;20320;-59
2022/01/06 09:27:05;;;;;;;18.57;7.50;;;;;;;;;;4955436;28;20218;-60
2022/01/06 09:29:31;;;;;;;13.63;4.70;;;;;;;;;;4965986;28;20225;-60
2022/01/06 09:31:56;;;;;;;23.40;8.93;;;;;;;;;;4974751;28;20304;-60
2022/01/06 09:34:21;;;;;;;22.20;6.27;;;;;;;;;;4971535;28;20709;-59
2022/01/06 09:36:46;;;;;;;15.07;4.13;;;;;;;;;;4974322;28;20225;-59
2022/01/06 09:39:12;;;;;;;19.27;4.27;;;;;;;;;;4974825;28;20228;-60
2022/01/06 09:41:37;;;;;;;12.43;3.90;;;;;;;;;;4976567;28;20228;-60
2022/01/06 09:44:03;;;;;;;15.57;4.10;;;;;;;;;;4972715;28;20693;-60
2022/01/06 09:46:28;;;;;;;18.70;4.30;;;;;;;;;;4952257;28;20305;-60
2022/01/06 09:48:57;;;;;;;18.37;3.73;;;;;;;;;;4955163;28;20241;-60
2022/01/06 09:51:22;;;;;;;16.00;3.80;;;;;;;;;;4978565;28;20234;-60
2022/01/06 09:53:48;;;;;;;15.83;3.87;;;;;;;;;;4975829;28;20260;-61
2022/01/06 09:56:14;;;;;;;16.33;3.53;;;;;;;;;;4975997;28;20239;-59
2022/01/06 09:58:39;;;;;;;18.43;4.20;;;;;;;;;;4975511;28;20312;-59
2022/01/06 10:01:04;;;;;;;16.40;3.87;;;;;;;;;;4975774;28;20221;-59
2022/01/06 10:03:33;;;;;;;15.47;3.77;;;;;;;;;;4976340;28;20230;-59
2022/01/06 10:06:08;;;;;;;13.68;3.53;;;;;;;;;;4975219;28;20218;-59
2022/01/06 10:08:33;;;;;;;15.47;4.07;;;;;;;;;;4990926;28;20214;-59
2022/01/06 10:11:08;;;;;;;19.33;3.77;;;;;;;;;;4975944;28;20225;-59
2022/01/06 10:13:33;;;;;;;14.35;3.67;;;;;;;;;;4990139;28;20217;-59
2022/01/06 10:15:59;;;;;;;16.23;3.43;;;;;;;;;;4971486;28;20284;-59
2022/01/06 10:18:24;;;;;;;16.83;4.00;;;;;;;;;;4956228;28;20222;-59
2022/01/06 10:20:52;;;;;;;13.63;3.40;;;;;;;;;;4955629;28;20293;-59
2022/01/06 10:23:17;;;;;;;17.17;4.40;;;;;;;;;;4956142;28;20674;-59
2022/01/06 10:25:48;;;;;;;17.25;4.05;;;;;;;;;;4956664;28;20310;-59
2022/01/06 10:28:16;;;;;;;15.03;4.43;;;;;;;;;;4955260;28;20226;-59
2022/01/06 10:30:47;;;;;;;16.23;5.20;;;;;;;;;;4956463;28;20218;-59
2022/01/06 10:33:14;;;;;;;12.88;5.00;;;;;;;;;;4956236;28;20301;-59
2022/01/06 10:35:39;;;;;;;13.88;5.38;;;;;;;;;;4970268;28;20242;-59
2022/01/06 10:38:04;;;;;;;18.70;5.30;;;;;;;;;;4970491;28;20654;-59
2022/01/06 10:40:30;;;;;;;16.13;5.50;;;;;;;;;;4956249;28;20226;-59
2022/01/06 10:42:57;;;;;;;17.33;5.60;;;;;;;;;;4955662;28;20285;-59
2022/01/06 10:45:25;;;;;;;17.48;5.38;;;;;;;;;;4956089;28;20230;-59
2022/01/06 10:47:51;;;;;;;16.73;5.85;;;;;;;;;;4955411;28;20246;-59
2022/01/06 10:50:18;;;;;;;16.73;6.00;;;;;;;;;;4955099;28;20297;-59
2022/01/06 10:52:44;;;;;;;16.75;5.63;;;;;;;;;;4956092;28;20217;-59
2022/01/06 10:55:12;;;;;;;21.92;6.25;;;;;;;;;;4955046;28;20214;-59
2022/01/06 10:57:48;;;;;;;17.38;4.68;;;;;;;;;;4970399;28;20274;-59
2022/01/06 11:00:15;;;;;;;15.82;4.18;;;;;;;;;;4956501;28;20665;-61
2022/01/06 11:02:40;;;;;;;18.80;3.47;;;;;;;;;;4974415;28;20642;-59
2022/01/06 11:05:06;;;;;;;13.48;3.42;;;;;;;;;;4974166;28;20725;-59
2022/01/06 11:07:31;;;;;;;15.30;3.35;;;;;;;;;;4990077;28;20214;-60
2022/01/06 11:09:57;;;;;;;12.85;3.50;;;;;;;;;;4974376;28;20225;-59
2022/01/06 11:12:26;;;;;;;14.82;3.00;;;;;;;;;;4974508;28;20304;-59
2022/01/06 11:14:52;;;;;;;13.35;2.95;;;;;;;;;;4974958;28;20218;-59
2022/01/06 11:17:21;;;;;;;16.25;3.42;;;;;;;;;;4958563;28;20288;-59
2022/01/06 11:19:47;;;;;;;14.68;3.00;;;;;;;;;;4955056;28;20214;-59
2022/01/06 11:22:13;;;;;;;18.75;3.28;;;;;;;;;;4969720;28;20549;-59
2022/01/06 11:24:39;;;;;;;15.80;3.45;;;;;;;;;;4969331;28;20678;-59
2022/01/06 11:27:06;;;;;;;13.27;2.88;;;;;;;;;;4954873;28;20213;-60
2022/01/06 11:29:34;;;;;;;12.32;3.03;;;;;;;;;;4955179;28;20231;-60
2022/01/06 11:31:59;;;;;;;13.60;3.47;;;;;;;;;;4954356;28;20214;-59
2022/01/06 11:34:26;;;;;;;15.55;3.45;;;;;;;;;;4954857;28;20229;-59
2022/01/06 11:36:52;;;;;;;13.88;3.03;;;;;;;;;;4955077;28;20210;-59
2022/01/06 11:39:22;;;;;;;16.00;3.10;;;;;;;;;;4953961;28;20214;-59
2022/01/06 11:41:47;;;;;;;17.17;3.17;;;;;;;;;;4955130;28;20265;-59
2022/01/06 11:44:17;;;;;;;12.82;2.95;;;;;;;;;;4953751;28;20214;-59
2022/01/06 11:46:43;;;;;;;13.63;3.13;;;;;;;;;;4955209;28;20214;-59
2022/01/06 11:49:08;;;;;;;14.02;2.50;;;;;;;;;;4953509;28;20215;-60
2022/01/06 11:51:36;;;;;;;11.55;2.90;;;;;;;;;;4954103;28;20614;-60
2022/01/06 11:54:12;;;;;;;14.27;3.08;;;;;;;;;;4954568;28;20210;-59
2022/01/06 11:56:44;;;;;;;16.45;2.78;;;;;;;;;;4954947;28;20210;-59
2022/01/06 11:59:10;;;;;;;12.23;2.50;;;;;;;;;;4953582;28;20218;-59
2022/01/06 12:01:45;;;;;;;16.30;3.30;;;;;;;;;;4954605;28;20565;-59
2022/01/06 12:04:14;;;;;;;13.38;2.85;;;;;;;;;;4954134;28;20752;-59
2022/01/06 12:06:41;;;;;;;11.20;2.45;;;;;;;;;;4953898;28;20734;-60
2022/01/06 12:09:13;;;;;;;12.02;2.40;;;;;;;;;;4954255;28;20694;-60
2022/01/06 12:11:39;;;;;;;15.23;2.63;;;;;;;;;;4952588;28;20299;-60
2022/01/06 12:14:04;;;;;;;9.73;2.70;;;;;;;;;;4953436;28;20302;-60
2022/01/06 12:16:30;;;;;;;11.38;2.30;;;;;;;;;;4954656;28;20203;-59
2022/01/06 12:18:55;;;;;;;11.30;2.90;;;;;;;;;;4954407;28;20249;-60
2022/01/06 12:21:21;;;;;;;10.70;2.05;;;;;;;;;;4953004;28;20221;-60
2022/01/06 12:23:46;;;;;;;10.63;2.40;;;;;;;;;;4954833;28;20206;-60
2022/01/06 12:26:13;;;;;;;12.32;2.45;;;;;;;;;;4968367;28;20705;-60
2022/01/06 12:28:47;;;;;;;14.23;2.30;;;;;;;;;;4969025;28;20221;-60
2022/01/06 12:31:14;;;;;;;6.82;1.85;;;;;;;;;;4968802;28;20238;-61
2022/01/06 12:33:48;;;;;;;12.13;2.40;;;;;;;;;;4968156;28;20215;-60
2022/01/06 12:36:16;;;;;;;10.90;2.45;;;;;;;;;;4953107;28;20213;-60
2022/01/06 12:38:41;;;;;;;12.82;2.88;;;;;;;;;;4971007;28;20225;-58
2022/01/06 12:41:06;;;;;;;11.70;2.90;;;;;;;;;;4972351;28;20217;-59
2022/01/06 12:43:32;;;;;;;14.65;3.05;;;;;;;;;;4973548;28;20677;-59
2022/01/06 12:46:07;;;;;;;8.10;1.90;;;;;;;;;;4974267;28;20217;-59
2022/01/06 12:48:33;;;;;;;8.73;2.47;;;;;;;;;;4972817;28;20229;-59
2022/01/06 12:50:59;;;;;;;7.35;2.10;;;;;;;;;;4973252;28;20232;-61
2022/01/06 12:53:26;;;;;;;8.45;2.15;;;;;;;;;;4973359;28;20571;-59
2022/01/06 12:55:52;;;;;;;10.48;2.67;;;;;;;;;;4972829;28;20206;-59
2022/01/06 12:58:30;;;;;;;11.60;2.58;;;;;;;;;;4967832;28;20237;-60
2022/01/06 13:00:56;;;;;;;12.07;2.97;;;;;;;;;;4975138;28;20217;-59
2022/01/06 13:03:28;;;;;;;12.20;2.80;;;;;;;;;;4976446;28;20216;-59
2022/01/06 13:05:53;;;;;;;13.63;2.40;;;;;;;;;;4977298;28;20293;-59
2022/01/06 13:08:18;;;;;;;12.52;2.55;;;;;;;;;;4977044;28;20300;-59
2022/01/06 13:10:44;;;;;;;13.15;2.78;;;;;;;;;;4991443;28;20236;-59
2022/01/06 13:13:09;;;;;;;13.52;2.75;;;;;;;;;;4976664;28;20576;-60
2022/01/06 13:15:34;;;;;;;11.40;2.42;;;;;;;;;;4975051;28;20238;-59
2022/01/06 13:18:00;;;;;;;14.85;2.80;;;;;;;;;;4957896;28;20210;-59
2022/01/06 13:20:25;;;;;;;15.05;2.83;;;;;;;;;;4972102;28;20207;-59
2022/01/06 13:25:18;;;;;;;11.95;2.67;;;;;;;;;;4957280;28;20211;-59
2022/01/06 13:27:54;;;;;;;13.65;2.45;;;;;;;;;;4957219;28;20277;-60
2022/01/06 13:30:28;;;;;;;13.18;2.47;;;;;;;;;;4956322;28;20237;-59
2022/01/06 13:32:55;;;;;;;12.75;2.55;;;;;;;;;;4957668;28;20321;-59
2022/01/06 13:35:20;;;;;;;10.65;2.70;;;;;;;;;;4971858;28;20229;-59
2022/01/06 13:37:45;;;;;;;10.43;2.58;;;;;;;;;;4956832;28;20297;-59
2022/01/06 13:40:11;;;;;;;10.85;2.40;;;;;;;;;;4971954;28;20643;-59
2022/01/06 13:42:38;;;;;;;16.20;3.40;;;;;;;;;;4957217;28;20207;-59
2022/01/06 13:45:17;;;;;;;11.88;2.53;;;;;;;;;;4955678;28;20206;-59
2022/01/06 13:48:00;;;;;;;11.98;2.42;;;;;;;;;;4938052;29;20294;-59
2022/01/06 13:53:26;;;;;;;10.95;2.50;;;;;;;;;;4937649;29;20318;-59
2022/01/06 13:55:56;;;;;;;11.85;2.97;;;;;;;;;;4937989;29;20238;-59
2022/01/06 13:58:21;;;;;;;17.20;2.72;;;;;;;;;;4936541;29;20306;-59
2022/01/06 14:00:49;;;;;;;14.70;2.33;;;;;;;;;;4958000;28;20284;-59
2022/01/06 14:03:14;;;;;;;10.70;2.30;;;;;;;;;;4954786;28;20214;-59
2022/01/06 14:05:42;;;;;;;11.43;2.58;;;;;;;;;;4937005;29;20214;-59
2022/01/06 14:08:07;;;;;;;11.98;2.50;;;;;;;;;;4937457;29;20226;-59
2022/01/06 14:10:32;;;;;;;17.70;2.63;;;;;;;;;;4952023;28;20213;-59
2022/01/06 14:12:58;;;;;;;13.43;3.20;;;;;;;;;;4974275;28;20691;-59
2022/01/06 14:15:23;;;;;;;17.23;2.53;;;;;;;;;;4975597;28;20205;-58
2022/01/06 14:17:48;;;;;;;11.90;2.50;;;;;;;;;;4956966;28;20576;-58
2022/01/06 14:20:14;;;;;;;13.25;2.47;;;;;;;;;;4955213;28;20214;-58
2022/01/06 14:22:39;;;;;;;12.90;2.88;;;;;;;;;;4956141;28;20620;-59
2022/01/06 14:25:04;;;;;;;11.77;2.50;;;;;;;;;;4950317;28;20349;-58
2022/01/06 14:27:29;;;;;;;12.88;2.20;;;;;;;;;;4953728;29;20215;-58
2022/01/06 14:29:55;;;;;;;16.70;2.60;;;;;;;;;;4956638;28;20259;-58
2022/01/06 14:32:20;;;;;;;9.93;2.03;;;;;;;;;;4955471;28;20647;-58
2022/01/06 14:34:45;;;;;;;10.85;2.45;;;;;;;;;;4955448;28;20217;-59
2022/01/06 14:37:11;;;;;;;12.43;2.35;;;;;;;;;;4956082;28;20297;-59